sensor_id;sensor_type;location;lat;lon;timestamp;temperature;humidity
64888;DHT22;51386;53.082;8.816;2023-08-21T00:00:22;22.50;82.30
64888;DHT22;51386;53.082;8.816;2023-08-21T00:02:49;22.50;82.50
64888;DHT22;51386;53.082;8.816;2023-08-21T00:05:17;22.50;82.60
64888;DHT22;51386;53.082;8.816;2023-08-21T00:07:45;22.50;82.70
64888;DHT22;51386;53.082;8.816;2023-08-21T00:10:13;22.40;82.60
64888;DHT22;51386;53.082;8.816;2023-08-21T00:12:40;22.40;82.80
64888;DHT22;51386;53.082;8.816;2023-08-21T00:15:09;22.30;82.90
64888;DHT22;51386;53.082;8.816;2023-08-21T00:17:36;22.30;83.00
64888;DHT22;51386;53.082;8.816;2023-08-21T00:20:04;22.30;83.10
64888;DHT22;51386;53.082;8.816;2023-08-21T00:22:32;22.20;83.20
64888;DHT22;51386;53.082;8.816;2023-08-21T00:25:00;22.20;83.60
64888;DHT22;51386;53.082;8.816;2023-08-21T00:27:28;22.20;84.10
64888;DHT22;51386;53.082;8.816;2023-08-21T00:29:55;22.20;84.30
64888;DHT22;51386;53.082;8.816;2023-08-21T00:32:22;22.20;84.10
64888;DHT22;51386;53.082;8.816;2023-08-21T00:34:49;22.20;84.10
64888;DHT22;51386;53.082;8.816;2023-08-21T00:37:16;22.20;84.10
64888;DHT22;51386;53.082;8.816;2023-08-21T00:39:43;22.20;84.10
64888;DHT22;51386;53.082;8.816;2023-08-21T00:42:11;22.20;84.10
64888;DHT22;51386;53.082;8.816;2023-08-21T00:44:38;22.20;84.50
64888;DHT22;51386;53.082;8.816;2023-08-21T00:47:06;22.20;84.30
64888;DHT22;51386;53.082;8.816;2023-08-21T00:49:33;22.20;84.10
64888;DHT22;51386;53.082;8.816;2023-08-21T00:52:01;22.20;84.10
64888;DHT22;51386;53.082;8.816;2023-08-21T00:54:29;22.20;84.30
64888;DHT22;51386;53.082;8.816;2023-08-21T00:56:56;22.20;84.20
64888;DHT22;51386;53.082;8.816;2023-08-21T00:59:25;22.20;84.10
64888;DHT22;51386;53.082;8.816;2023-08-21T01:01:52;22.20;84.30
64888;DHT22;51386;53.082;8.816;2023-08-21T01:04:19;22.20;84.40
64888;DHT22;51386;53.082;8.816;2023-08-21T01:06:48;22.20;84.00
64888;DHT22;51386;53.082;8.816;2023-08-21T01:09:22;22.20;84.30
64888;DHT22;51386;53.082;8.816;2023-08-21T01:11:58;22.20;84.40
64888;DHT22;51386;53.082;8.816;2023-08-21T01:14:39;22.20;84.00
64888;DHT22;51386;53.082;8.816;2023-08-21T01:17:11;22.20;84.10
64888;DHT22;51386;53.082;8.816;2023-08-21T01:19:43;22.10;84.20
64888;DHT22;51386;53.082;8.816;2023-08-21T01:22:12;22.20;84.30
64888;DHT22;51386;53.082;8.816;2023-08-21T01:24:41;22.10;84.10
64888;DHT22;51386;53.082;8.816;2023-08-21T01:27:08;22.10;84.50
64888;DHT22;51386;53.082;8.816;2023-08-21T01:29:37;22.10;84.70
64888;DHT22;51386;53.082;8.816;2023-08-21T01:32:07;22.10;84.70
64888;DHT22;51386;53.082;8.816;2023-08-21T01:34:40;22.10;84.80
64888;DHT22;51386;53.082;8.816;2023-08-21T01:37:09;22.10;85.00
64888;DHT22;51386;53.082;8.816;2023-08-21T01:39:37;22.00;85.10
64888;DHT22;51386;53.082;8.816;2023-08-21T01:42:06;22.00;85.60
64888;DHT22;51386;53.082;8.816;2023-08-21T01:44:33;22.00;85.30
64888;DHT22;51386;53.082;8.816;2023-08-21T01:47:00;22.00;85.20
64888;DHT22;51386;53.082;8.816;2023-08-21T01:49:28;22.00;85.30
64888;DHT22;51386;53.082;8.816;2023-08-21T01:51:55;22.00;85.20
64888;DHT22;51386;53.082;8.816;2023-08-21T01:54:23;21.90;85.20
64888;DHT22;51386;53.082;8.816;2023-08-21T01:56:50;21.90;85.50
64888;DHT22;51386;53.082;8.816;2023-08-21T01:59:19;21.90;86.00
64888;DHT22;51386;53.082;8.816;2023-08-21T02:01:48;21.90;85.80
64888;DHT22;51386;53.082;8.816;2023-08-21T02:04:15;21.90;86.20
64888;DHT22;51386;53.082;8.816;2023-08-21T02:06:42;21.90;85.90
64888;DHT22;51386;53.082;8.816;2023-08-21T02:09:10;21.90;86.00
64888;DHT22;51386;53.082;8.816;2023-08-21T02:11:37;21.90;86.20
64888;DHT22;51386;53.082;8.816;2023-08-21T02:14:04;21.90;86.30
64888;DHT22;51386;53.082;8.816;2023-08-21T02:16:33;21.90;86.50
64888;DHT22;51386;53.082;8.816;2023-08-21T02:19:00;22.00;86.50
64888;DHT22;51386;53.082;8.816;2023-08-21T02:21:27;22.00;86.10
64888;DHT22;51386;53.082;8.816;2023-08-21T02:23:54;22.10;86.10
64888;DHT22;51386;53.082;8.816;2023-08-21T02:26:21;22.10;86.10
64888;DHT22;51386;53.082;8.816;2023-08-21T02:28:48;22.10;85.90
64888;DHT22;51386;53.082;8.816;2023-08-21T02:31:15;22.10;85.80
64888;DHT22;51386;53.082;8.816;2023-08-21T02:33:44;22.10;85.60
64888;DHT22;51386;53.082;8.816;2023-08-21T02:36:11;22.20;85.70
64888;DHT22;51386;53.082;8.816;2023-08-21T02:38:38;22.20;85.70
64888;DHT22;51386;53.082;8.816;2023-08-21T02:41:05;22.20;85.50
64888;DHT22;51386;53.082;8.816;2023-08-21T02:43:32;22.10;85.50
64888;DHT22;51386;53.082;8.816;2023-08-21T02:45:58;22.10;85.30
64888;DHT22;51386;53.082;8.816;2023-08-21T02:48:26;22.10;85.30
64888;DHT22;51386;53.082;8.816;2023-08-21T02:50:54;22.20;85.50
64888;DHT22;51386;53.082;8.816;2023-08-21T02:53:21;22.10;85.30
64888;DHT22;51386;53.082;8.816;2023-08-21T02:55:48;22.10;85.20
64888;DHT22;51386;53.082;8.816;2023-08-21T02:58:15;22.10;85.50
64888;DHT22;51386;53.082;8.816;2023-08-21T03:00:42;22.10;85.50
64888;DHT22;51386;53.082;8.816;2023-08-21T03:03:09;22.10;85.50
64888;DHT22;51386;53.082;8.816;2023-08-21T03:05:38;22.10;85.20
64888;DHT22;51386;53.082;8.816;2023-08-21T03:08:06;22.10;85.40
64888;DHT22;51386;53.082;8.816;2023-08-21T03:10:33;22.00;85.30
64888;DHT22;51386;53.082;8.816;2023-08-21T03:13:01;22.00;85.30
64888;DHT22;51386;53.082;8.816;2023-08-21T03:15:28;21.90;85.20
64888;DHT22;51386;53.082;8.816;2023-08-21T03:17:55;21.90;85.50
64888;DHT22;51386;53.082;8.816;2023-08-21T03:20:23;21.80;85.60
64888;DHT22;51386;53.082;8.816;2023-08-21T03:22:50;21.70;85.60
64888;DHT22;51386;53.082;8.816;2023-08-21T03:25:18;21.60;86.40
64888;DHT22;51386;53.082;8.816;2023-08-21T03:27:45;21.60;86.20
64888;DHT22;51386;53.082;8.816;2023-08-21T03:30:16;21.50;86.40
64888;DHT22;51386;53.082;8.816;2023-08-21T03:32:43;21.50;86.70
64888;DHT22;51386;53.082;8.816;2023-08-21T03:35:10;21.50;86.70
64888;DHT22;51386;53.082;8.816;2023-08-21T03:37:37;21.50;87.10
64888;DHT22;51386;53.082;8.816;2023-08-21T03:40:05;21.50;86.50
64888;DHT22;51386;53.082;8.816;2023-08-21T03:42:34;21.50;86.80
64888;DHT22;51386;53.082;8.816;2023-08-21T03:45:02;21.50;87.10
64888;DHT22;51386;53.082;8.816;2023-08-21T03:47:31;21.50;87.10
64888;DHT22;51386;53.082;8.816;2023-08-21T03:49:58;21.50;86.80
64888;DHT22;51386;53.082;8.816;2023-08-21T03:52:25;21.50;86.90
64888;DHT22;51386;53.082;8.816;2023-08-21T03:54:52;21.50;86.60
64888;DHT22;51386;53.082;8.816;2023-08-21T03:57:19;21.50;86.70
64888;DHT22;51386;53.082;8.816;2023-08-21T03:59:47;21.60;86.70
64888;DHT22;51386;53.082;8.816;2023-08-21T04:02:15;21.60;86.50
64888;DHT22;51386;53.082;8.816;2023-08-21T04:04:42;21.60;86.10
64888;DHT22;51386;53.082;8.816;2023-08-21T04:07:09;21.70;86.10
64888;DHT22;51386;53.082;8.816;2023-08-21T04:09:36;21.70;86.10
64888;DHT22;51386;53.082;8.816;2023-08-21T04:12:03;21.70;85.60
64888;DHT22;51386;53.082;8.816;2023-08-21T04:14:30;21.70;85.20
64888;DHT22;51386;53.082;8.816;2023-08-21T04:16:59;21.70;85.70
64888;DHT22;51386;53.082;8.816;2023-08-21T04:19:25;21.70;85.90
64888;DHT22;51386;53.082;8.816;2023-08-21T04:21:56;21.60;85.60
64888;DHT22;51386;53.082;8.816;2023-08-21T04:24:23;21.70;85.40
64888;DHT22;51386;53.082;8.816;2023-08-21T04:26:50;21.60;84.60
64888;DHT22;51386;53.082;8.816;2023-08-21T04:29:17;21.60;84.70
64888;DHT22;51386;53.082;8.816;2023-08-21T04:31:44;21.50;84.60
64888;DHT22;51386;53.082;8.816;2023-08-21T04:34:13;21.40;85.20
64888;DHT22;51386;53.082;8.816;2023-08-21T04:36:40;21.40;85.80
64888;DHT22;51386;53.082;8.816;2023-08-21T04:39:07;21.40;85.60
64888;DHT22;51386;53.082;8.816;2023-08-21T04:41:34;21.30;85.70
64888;DHT22;51386;53.082;8.816;2023-08-21T04:44:02;21.20;86.10
64888;DHT22;51386;53.082;8.816;2023-08-21T04:46:29;21.20;86.10
64888;DHT22;51386;53.082;8.816;2023-08-21T04:48:56;21.20;86.20
64888;DHT22;51386;53.082;8.816;2023-08-21T04:51:25;21.20;86.10
64888;DHT22;51386;53.082;8.816;2023-08-21T04:53:52;21.20;86.10
64888;DHT22;51386;53.082;8.816;2023-08-21T04:56:19;21.10;85.80
64888;DHT22;51386;53.082;8.816;2023-08-21T04:58:46;21.10;85.90
64888;DHT22;51386;53.082;8.816;2023-08-21T05:01:13;21.10;86.20
64888;DHT22;51386;53.082;8.816;2023-08-21T05:03:40;21.00;86.30
64888;DHT22;51386;53.082;8.816;2023-08-21T05:06:08;21.00;86.50
64888;DHT22;51386;53.082;8.816;2023-08-21T05:08:36;21.00;86.80
64888;DHT22;51386;53.082;8.816;2023-08-21T05:11:03;20.90;86.90
64888;DHT22;51386;53.082;8.816;2023-08-21T05:13:30;20.90;87.10
64888;DHT22;51386;53.082;8.816;2023-08-21T05:15:58;20.90;87.20
64888;DHT22;51386;53.082;8.816;2023-08-21T05:18:25;20.90;87.50
64888;DHT22;51386;53.082;8.816;2023-08-21T05:20:54;20.80;87.70
64888;DHT22;51386;53.082;8.816;2023-08-21T05:23:22;20.90;87.90
64888;DHT22;51386;53.082;8.816;2023-08-21T05:25:51;20.90;87.90
64888;DHT22;51386;53.082;8.816;2023-08-21T05:28:18;20.90;88.70
64888;DHT22;51386;53.082;8.816;2023-08-21T05:30:46;21.00;88.20
64888;DHT22;51386;53.082;8.816;2023-08-21T05:33:14;21.00;88.30
64888;DHT22;51386;53.082;8.816;2023-08-21T05:35:41;21.00;88.40
64888;DHT22;51386;53.082;8.816;2023-08-21T05:38:09;21.10;88.60
64888;DHT22;51386;53.082;8.816;2023-08-21T05:40:36;21.20;88.20
64888;DHT22;51386;53.082;8.816;2023-08-21T05:43:04;21.30;88.00
64888;DHT22;51386;53.082;8.816;2023-08-21T05:45:31;21.40;88.00
64888;DHT22;51386;53.082;8.816;2023-08-21T05:47:58;21.40;87.70
64888;DHT22;51386;53.082;8.816;2023-08-21T05:50:25;21.50;87.60
64888;DHT22;51386;53.082;8.816;2023-08-21T05:52:53;21.60;87.60
64888;DHT22;51386;53.082;8.816;2023-08-21T05:55:21;21.70;87.30
64888;DHT22;51386;53.082;8.816;2023-08-21T05:57:48;21.80;87.10
64888;DHT22;51386;53.082;8.816;2023-08-21T06:00:17;21.90;86.80
64888;DHT22;51386;53.082;8.816;2023-08-21T06:02:44;21.90;86.50
64888;DHT22;51386;53.082;8.816;2023-08-21T06:05:11;22.00;86.30
64888;DHT22;51386;53.082;8.816;2023-08-21T06:07:38;22.10;86.10
64888;DHT22;51386;53.082;8.816;2023-08-21T06:10:07;22.10;85.80
64888;DHT22;51386;53.082;8.816;2023-08-21T06:12:35;22.20;85.60
64888;DHT22;51386;53.082;8.816;2023-08-21T06:15:03;22.20;85.10
64888;DHT22;51386;53.082;8.816;2023-08-21T06:17:31;22.30;85.10
64888;DHT22;51386;53.082;8.816;2023-08-21T06:19:58;22.40;85.00
64888;DHT22;51386;53.082;8.816;2023-08-21T06:22:26;22.50;84.90
64888;DHT22;51386;53.082;8.816;2023-08-21T06:24:53;22.60;84.60
64888;DHT22;51386;53.082;8.816;2023-08-21T06:27:20;22.60;84.30
64888;DHT22;51386;53.082;8.816;2023-08-21T06:29:47;22.70;84.00
64888;DHT22;51386;53.082;8.816;2023-08-21T06:32:14;22.70;83.80
64888;DHT22;51386;53.082;8.816;2023-08-21T06:34:42;22.70;83.80
64888;DHT22;51386;53.082;8.816;2023-08-21T06:37:09;22.80;83.90
64888;DHT22;51386;53.082;8.816;2023-08-21T06:39:36;22.80;83.80
64888;DHT22;51386;53.082;8.816;2023-08-21T06:42:04;22.90;83.90
64888;DHT22;51386;53.082;8.816;2023-08-21T06:44:31;22.90;83.60
64888;DHT22;51386;53.082;8.816;2023-08-21T06:46:58;22.90;83.50
64888;DHT22;51386;53.082;8.816;2023-08-21T06:49:25;22.90;83.40
64888;DHT22;51386;53.082;8.816;2023-08-21T06:51:53;23.00;83.60
64888;DHT22;51386;53.082;8.816;2023-08-21T06:54:20;23.00;83.50
64888;DHT22;51386;53.082;8.816;2023-08-21T06:56:47;23.00;83.40
64888;DHT22;51386;53.082;8.816;2023-08-21T06:59:14;23.10;83.40
64888;DHT22;51386;53.082;8.816;2023-08-21T07:01:42;23.10;83.60
64888;DHT22;51386;53.082;8.816;2023-08-21T07:04:09;23.10;83.30
64888;DHT22;51386;53.082;8.816;2023-08-21T07:06:42;23.10;82.00
64888;DHT22;51386;53.082;8.816;2023-08-21T07:09:11;23.20;81.10
64888;DHT22;51386;53.082;8.816;2023-08-21T07:11:38;23.20;80.70
64888;DHT22;51386;53.082;8.816;2023-08-21T07:14:05;23.30;80.70
64888;DHT22;51386;53.082;8.816;2023-08-21T07:16:32;23.30;80.40
64888;DHT22;51386;53.082;8.816;2023-08-21T07:18:59;23.30;80.30
64888;DHT22;51386;53.082;8.816;2023-08-21T07:21:26;23.40;80.10
64888;DHT22;51386;53.082;8.816;2023-08-21T07:24:00;23.40;79.70
64888;DHT22;51386;53.082;8.816;2023-08-21T07:26:28;23.40;79.70
64888;DHT22;51386;53.082;8.816;2023-08-21T07:28:56;23.50;79.80
64888;DHT22;51386;53.082;8.816;2023-08-21T07:31:23;23.50;78.80
64888;DHT22;51386;53.082;8.816;2023-08-21T07:33:50;23.60;78.70
64888;DHT22;51386;53.082;8.816;2023-08-21T07:36:18;23.70;79.20
64888;DHT22;51386;53.082;8.816;2023-08-21T07:38:45;24.00;79.90
64888;DHT22;51386;53.082;8.816;2023-08-21T07:41:13;24.30;79.10
64888;DHT22;51386;53.082;8.816;2023-08-21T07:43:42;24.70;77.60
64888;DHT22;51386;53.082;8.816;2023-08-21T07:46:12;25.30;76.30
64888;DHT22;51386;53.082;8.816;2023-08-21T07:48:43;25.90;74.00
64888;DHT22;51386;53.082;8.816;2023-08-21T07:51:11;26.50;71.40
64888;DHT22;51386;53.082;8.816;2023-08-21T07:53:38;27.10;68.80
64888;DHT22;51386;53.082;8.816;2023-08-21T07:56:05;27.70;64.70
64888;DHT22;51386;53.082;8.816;2023-08-21T07:58:32;28.30;63.20
64888;DHT22;51386;53.082;8.816;2023-08-21T08:01:01;28.90;60.10
64888;DHT22;51386;53.082;8.816;2023-08-21T08:03:29;29.40;58.10
64888;DHT22;51386;53.082;8.816;2023-08-21T08:05:57;29.90;55.90
64888;DHT22;51386;53.082;8.816;2023-08-21T08:08:24;30.40;54.40
64888;DHT22;51386;53.082;8.816;2023-08-21T08:10:52;30.90;51.90
64888;DHT22;51386;53.082;8.816;2023-08-21T08:13:19;31.30;52.30
64888;DHT22;51386;53.082;8.816;2023-08-21T08:15:47;31.80;49.00
64888;DHT22;51386;53.082;8.816;2023-08-21T08:18:17;32.20;46.50
64888;DHT22;51386;53.082;8.816;2023-08-21T08:20:47;32.50;43.70
64888;DHT22;51386;53.082;8.816;2023-08-21T08:23:15;32.80;42.90
64888;DHT22;51386;53.082;8.816;2023-08-21T08:25:44;33.10;42.30
64888;DHT22;51386;53.082;8.816;2023-08-21T08:28:11;33.40;41.70
64888;DHT22;51386;53.082;8.816;2023-08-21T08:30:38;33.70;40.00
64888;DHT22;51386;53.082;8.816;2023-08-21T08:33:08;33.90;39.00
64888;DHT22;51386;53.082;8.816;2023-08-21T08:35:37;34.20;38.90
64888;DHT22;51386;53.082;8.816;2023-08-21T08:38:04;34.40;37.80
64888;DHT22;51386;53.082;8.816;2023-08-21T08:40:31;34.60;37.40
64888;DHT22;51386;53.082;8.816;2023-08-21T08:43:02;34.80;36.20
64888;DHT22;51386;53.082;8.816;2023-08-21T08:45:33;35.00;36.40
64888;DHT22;51386;53.082;8.816;2023-08-21T08:48:01;35.20;35.80
64888;DHT22;51386;53.082;8.816;2023-08-21T08:50:31;35.40;36.10
64888;DHT22;51386;53.082;8.816;2023-08-21T08:53:01;35.60;36.00
64888;DHT22;51386;53.082;8.816;2023-08-21T08:55:42;35.80;35.30
64888;DHT22;51386;53.082;8.816;2023-08-21T08:58:10;35.90;34.00
64888;DHT22;51386;53.082;8.816;2023-08-21T09:00:37;35.90;33.80
64888;DHT22;51386;53.082;8.816;2023-08-21T09:03:05;35.80;34.50
64888;DHT22;51386;53.082;8.816;2023-08-21T09:05:34;35.60;34.80
64888;DHT22;51386;53.082;8.816;2023-08-21T09:08:10;35.60;35.00
64888;DHT22;51386;53.082;8.816;2023-08-21T09:10:38;35.60;34.90
64888;DHT22;51386;53.082;8.816;2023-08-21T09:13:12;35.50;34.00
64888;DHT22;51386;53.082;8.816;2023-08-21T09:15:41;35.60;34.40
64888;DHT22;51386;53.082;8.816;2023-08-21T09:18:13;35.70;34.50
64888;DHT22;51386;53.082;8.816;2023-08-21T09:20:42;35.90;34.50
64888;DHT22;51386;53.082;8.816;2023-08-21T09:23:17;36.20;34.20
64888;DHT22;51386;53.082;8.816;2023-08-21T09:25:46;36.40;34.10
64888;DHT22;51386;53.082;8.816;2023-08-21T09:28:21;36.70;33.70
64888;DHT22;51386;53.082;8.816;2023-08-21T09:30:52;36.90;32.90
64888;DHT22;51386;53.082;8.816;2023-08-21T09:33:23;37.10;32.40
64888;DHT22;51386;53.082;8.816;2023-08-21T09:35:52;37.30;32.30
64888;DHT22;51386;53.082;8.816;2023-08-21T09:38:21;37.50;31.60
64888;DHT22;51386;53.082;8.816;2023-08-21T09:40:54;37.70;31.30
64888;DHT22;51386;53.082;8.816;2023-08-21T09:43:23;37.80;31.60
64888;DHT22;51386;53.082;8.816;2023-08-21T09:45:53;37.90;32.00
64888;DHT22;51386;53.082;8.816;2023-08-21T09:48:25;38.00;31.40
64888;DHT22;51386;53.082;8.816;2023-08-21T09:50:54;38.00;31.40
64888;DHT22;51386;53.082;8.816;2023-08-21T09:53:23;38.10;31.00
64888;DHT22;51386;53.082;8.816;2023-08-21T09:56:10;38.20;30.30
64888;DHT22;51386;53.082;8.816;2023-08-21T09:58:42;38.40;30.50
64888;DHT22;51386;53.082;8.816;2023-08-21T10:01:11;38.50;30.50
64888;DHT22;51386;53.082;8.816;2023-08-21T10:03:39;38.70;30.00
64888;DHT22;51386;53.082;8.816;2023-08-21T10:06:09;38.80;29.20
64888;DHT22;51386;53.082;8.816;2023-08-21T10:08:39;38.90;28.70
64888;DHT22;51386;53.082;8.816;2023-08-21T10:11:08;38.90;28.70
64888;DHT22;51386;53.082;8.816;2023-08-21T10:13:38;38.90;28.70
64888;DHT22;51386;53.082;8.816;2023-08-21T10:16:07;38.80;29.30
64888;DHT22;51386;53.082;8.816;2023-08-21T10:18:41;38.60;28.80
64888;DHT22;51386;53.082;8.816;2023-08-21T10:21:12;38.30;28.80
64888;DHT22;51386;53.082;8.816;2023-08-21T10:23:43;38.00;29.40
64888;DHT22;51386;53.082;8.816;2023-08-21T10:26:13;37.70;29.10
64888;DHT22;51386;53.082;8.816;2023-08-21T10:28:42;37.40;29.70
64888;DHT22;51386;53.082;8.816;2023-08-21T10:31:27;37.20;29.40
64888;DHT22;51386;53.082;8.816;2023-08-21T10:34:00;36.90;29.40
64888;DHT22;51386;53.082;8.816;2023-08-21T10:36:39;36.70;30.30
64888;DHT22;51386;53.082;8.816;2023-08-21T10:39:23;36.60;31.00
64888;DHT22;51386;53.082;8.816;2023-08-21T10:41:55;36.50;31.40
64888;DHT22;51386;53.082;8.816;2023-08-21T10:44:47;36.20;30.80
64888;DHT22;51386;53.082;8.816;2023-08-21T10:47:20;35.90;30.60
64888;DHT22;51386;53.082;8.816;2023-08-21T10:49:51;35.40;31.30
64888;DHT22;51386;53.082;8.816;2023-08-21T10:52:21;34.90;31.80
64888;DHT22;51386;53.082;8.816;2023-08-21T10:54:53;34.50;32.60
64888;DHT22;51386;53.082;8.816;2023-08-21T10:57:24;34.10;33.20
64888;DHT22;51386;53.082;8.816;2023-08-21T10:59:54;33.60;33.90
64888;DHT22;51386;53.082;8.816;2023-08-21T11:02:22;33.20;34.60
64888;DHT22;51386;53.082;8.816;2023-08-21T11:04:51;32.80;35.00
64888;DHT22;51386;53.082;8.816;2023-08-21T11:07:19;32.50;35.40
64888;DHT22;51386;53.082;8.816;2023-08-21T11:09:48;32.30;36.40
64888;DHT22;51386;53.082;8.816;2023-08-21T11:12:18;32.10;36.90
64888;DHT22;51386;53.082;8.816;2023-08-21T11:14:47;31.90;37.00
64888;DHT22;51386;53.082;8.816;2023-08-21T11:17:15;31.80;37.50
64888;DHT22;51386;53.082;8.816;2023-08-21T11:19:42;31.70;37.90
64888;DHT22;51386;53.082;8.816;2023-08-21T11:22:11;31.60;38.10
64888;DHT22;51386;53.082;8.816;2023-08-21T11:24:40;31.60;37.70
64888;DHT22;51386;53.082;8.816;2023-08-21T11:27:14;31.50;37.10
64888;DHT22;51386;53.082;8.816;2023-08-21T11:29:47;31.40;37.00
64888;DHT22;51386;53.082;8.816;2023-08-21T11:32:19;31.40;37.30
64888;DHT22;51386;53.082;8.816;2023-08-21T11:34:50;31.40;38.50
64888;DHT22;51386;53.082;8.816;2023-08-21T11:37:19;31.40;39.10
64888;DHT22;51386;53.082;8.816;2023-08-21T11:39:49;31.40;38.40
64888;DHT22;51386;53.082;8.816;2023-08-21T11:42:21;31.30;37.60
64888;DHT22;51386;53.082;8.816;2023-08-21T11:44:56;31.30;38.10
64888;DHT22;51386;53.082;8.816;2023-08-21T11:47:29;31.20;38.10
64888;DHT22;51386;53.082;8.816;2023-08-21T11:50:02;31.20;38.00
64888;DHT22;51386;53.082;8.816;2023-08-21T11:52:31;31.10;37.80
64888;DHT22;51386;53.082;8.816;2023-08-21T11:54:58;31.00;38.00
64888;DHT22;51386;53.082;8.816;2023-08-21T11:57:26;30.90;37.30
64888;DHT22;51386;53.082;8.816;2023-08-21T11:59:56;30.80;37.00
64888;DHT22;51386;53.082;8.816;2023-08-21T12:02:24;30.70;37.40
64888;DHT22;51386;53.082;8.816;2023-08-21T12:04:53;30.60;37.60
64888;DHT22;51386;53.082;8.816;2023-08-21T12:07:21;30.50;37.10
64888;DHT22;51386;53.082;8.816;2023-08-21T12:09:48;30.40;36.70
64888;DHT22;51386;53.082;8.816;2023-08-21T12:12:16;30.40;36.90
64888;DHT22;51386;53.082;8.816;2023-08-21T12:14:43;30.40;37.40
64888;DHT22;51386;53.082;8.816;2023-08-21T12:17:12;30.30;37.10
64888;DHT22;51386;53.082;8.816;2023-08-21T12:19:39;30.20;37.20
64888;DHT22;51386;53.082;8.816;2023-08-21T12:22:06;30.20;37.60
64888;DHT22;51386;53.082;8.816;2023-08-21T12:24:33;30.10;37.00
64888;DHT22;51386;53.082;8.816;2023-08-21T12:27:00;30.10;36.70
64888;DHT22;51386;53.082;8.816;2023-08-21T12:29:28;29.90;36.30
64888;DHT22;51386;53.082;8.816;2023-08-21T12:31:55;29.90;36.60
64888;DHT22;51386;53.082;8.816;2023-08-21T12:34:23;29.70;37.20
64888;DHT22;51386;53.082;8.816;2023-08-21T12:36:51;29.70;37.10
64888;DHT22;51386;53.082;8.816;2023-08-21T12:39:18;29.60;37.10
64888;DHT22;51386;53.082;8.816;2023-08-21T12:41:45;29.60;37.30
64888;DHT22;51386;53.082;8.816;2023-08-21T12:44:13;29.50;37.50
64888;DHT22;51386;53.082;8.816;2023-08-21T12:46:40;29.50;37.80
64888;DHT22;51386;53.082;8.816;2023-08-21T12:49:07;29.50;37.80
64888;DHT22;51386;53.082;8.816;2023-08-21T12:51:35;29.50;38.40
64888;DHT22;51386;53.082;8.816;2023-08-21T12:54:03;29.50;38.60
64888;DHT22;51386;53.082;8.816;2023-08-21T12:56:30;29.50;38.30
64888;DHT22;51386;53.082;8.816;2023-08-21T12:58:57;29.60;38.90
64888;DHT22;51386;53.082;8.816;2023-08-21T13:01:26;29.60;37.90
64888;DHT22;51386;53.082;8.816;2023-08-21T13:03:53;29.80;38.40
64888;DHT22;51386;53.082;8.816;2023-08-21T13:06:21;29.80;38.40
64888;DHT22;51386;53.082;8.816;2023-08-21T13:08:49;30.00;38.30
64888;DHT22;51386;53.082;8.816;2023-08-21T13:11:16;30.00;38.30
64888;DHT22;51386;53.082;8.816;2023-08-21T13:13:43;30.10;38.90
64888;DHT22;51386;53.082;8.816;2023-08-21T13:16:11;30.20;36.80
64888;DHT22;51386;53.082;8.816;2023-08-21T13:18:38;30.20;35.20
64888;DHT22;51386;53.082;8.816;2023-08-21T13:21:05;30.20;34.50
64888;DHT22;51386;53.082;8.816;2023-08-21T13:23:32;30.20;35.20
64888;DHT22;51386;53.082;8.816;2023-08-21T13:26:02;30.30;35.60
64888;DHT22;51386;53.082;8.816;2023-08-21T13:28:29;30.30;34.80
64888;DHT22;51386;53.082;8.816;2023-08-21T13:30:58;30.40;35.10
64888;DHT22;51386;53.082;8.816;2023-08-21T13:33:26;30.40;35.00
64888;DHT22;51386;53.082;8.816;2023-08-21T13:35:53;30.40;35.30
64888;DHT22;51386;53.082;8.816;2023-08-21T13:38:20;30.50;35.90
64888;DHT22;51386;53.082;8.816;2023-08-21T13:40:48;30.50;37.20
64888;DHT22;51386;53.082;8.816;2023-08-21T13:43:16;30.50;36.80
64888;DHT22;51386;53.082;8.816;2023-08-21T13:45:43;30.50;35.90
64888;DHT22;51386;53.082;8.816;2023-08-21T13:48:11;30.50;36.30
64888;DHT22;51386;53.082;8.816;2023-08-21T13:50:38;30.50;37.30
64888;DHT22;51386;53.082;8.816;2023-08-21T13:53:05;30.60;37.70
64888;DHT22;51386;53.082;8.816;2023-08-21T13:55:33;30.60;38.10
64888;DHT22;51386;53.082;8.816;2023-08-21T13:58:00;30.60;37.60
64888;DHT22;51386;53.082;8.816;2023-08-21T14:00:28;30.60;37.60
64888;DHT22;51386;53.082;8.816;2023-08-21T14:02:56;30.70;37.00
64888;DHT22;51386;53.082;8.816;2023-08-21T14:05:23;30.70;37.00
64888;DHT22;51386;53.082;8.816;2023-08-21T14:07:50;30.80;37.00
64888;DHT22;51386;53.082;8.816;2023-08-21T14:10:17;30.80;37.30
64888;DHT22;51386;53.082;8.816;2023-08-21T14:12:44;30.80;37.60
64888;DHT22;51386;53.082;8.816;2023-08-21T14:15:11;30.90;37.10
64888;DHT22;51386;53.082;8.816;2023-08-21T14:17:40;30.90;37.00
64888;DHT22;51386;53.082;8.816;2023-08-21T14:20:09;30.90;37.00
64888;DHT22;51386;53.082;8.816;2023-08-21T14:22:38;30.90;37.10
64888;DHT22;51386;53.082;8.816;2023-08-21T14:25:05;30.90;36.90
64888;DHT22;51386;53.082;8.816;2023-08-21T14:27:33;30.90;37.00
64888;DHT22;51386;53.082;8.816;2023-08-21T14:30:00;30.90;37.50
64888;DHT22;51386;53.082;8.816;2023-08-21T14:32:28;30.90;37.10
64888;DHT22;51386;53.082;8.816;2023-08-21T14:34:56;30.90;37.20
64888;DHT22;51386;53.082;8.816;2023-08-21T14:37:23;31.00;37.20
64888;DHT22;51386;53.082;8.816;2023-08-21T14:39:50;30.90;36.70
64888;DHT22;51386;53.082;8.816;2023-08-21T14:42:17;30.90;36.50
64888;DHT22;51386;53.082;8.816;2023-08-21T14:44:45;30.80;36.90
64888;DHT22;51386;53.082;8.816;2023-08-21T14:47:13;30.80;36.80
64888;DHT22;51386;53.082;8.816;2023-08-21T14:49:40;30.70;37.00
64888;DHT22;51386;53.082;8.816;2023-08-21T14:52:09;30.70;37.40
64888;DHT22;51386;53.082;8.816;2023-08-21T14:54:36;30.60;37.60
64888;DHT22;51386;53.082;8.816;2023-08-21T14:57:03;30.60;38.00
64888;DHT22;51386;53.082;8.816;2023-08-21T14:59:30;30.50;38.30
64888;DHT22;51386;53.082;8.816;2023-08-21T15:01:58;30.40;38.40
64888;DHT22;51386;53.082;8.816;2023-08-21T15:04:25;30.40;38.50
64888;DHT22;51386;53.082;8.816;2023-08-21T15:06:52;30.40;38.70
64888;DHT22;51386;53.082;8.816;2023-08-21T15:09:20;30.40;38.70
64888;DHT22;51386;53.082;8.816;2023-08-21T15:11:47;30.40;38.80
64888;DHT22;51386;53.082;8.816;2023-08-21T15:14:14;30.30;38.40
64888;DHT22;51386;53.082;8.816;2023-08-21T15:16:42;30.30;38.60
64888;DHT22;51386;53.082;8.816;2023-08-21T15:19:09;30.30;38.40
64888;DHT22;51386;53.082;8.816;2023-08-21T15:21:36;30.20;38.70
64888;DHT22;51386;53.082;8.816;2023-08-21T15:24:06;30.20;38.60
64888;DHT22;51386;53.082;8.816;2023-08-21T15:26:34;30.20;38.80
64888;DHT22;51386;53.082;8.816;2023-08-21T15:29:01;30.20;38.90
64888;DHT22;51386;53.082;8.816;2023-08-21T15:31:29;30.20;39.00
64888;DHT22;51386;53.082;8.816;2023-08-21T15:33:57;30.20;39.10
64888;DHT22;51386;53.082;8.816;2023-08-21T15:36:23;30.10;39.30